Flight Track Log - Related Links

Times and Time Zones

All times are in EDT time to prevent confusion due to time zone crossing. See the TC-JMJ flight status page for this flight to view local times or setup timezone preferences in your user account.

Time Position Orientation Groundspeed Altitude Reporting Facility
EDT Latitude Longitude Course Direction KTS MPH feet Rate Location/Type
Sat 12:31:15 PM 40.7828 28.9712 150° Southeast  Level Estimated
Sat 12:32:15 PM 40.6964 29.0376 150° Southeast  Level Estimated
Sat 12:33:15 PM 40.6101 29.1038 150° Southeast  Level Estimated
Sat 12:34:15 PM 40.5237 29.1699 150° Southeast  Level Estimated
Sat 12:35:15 PM 40.4372 29.2358 150° Southeast  Level Estimated
Sat 12:36:15 PM 40.3507 29.3015 150° Southeast  Level Estimated
Sat 12:37:15 PM 40.2642 29.3670 150° Southeast  Level Estimated
Sat 12:38:15 PM 40.1776 29.4324 150° Southeast  Level Estimated
Sat 12:39:15 PM 40.0910 29.4976 150° Southeast  Level Estimated
Sat 12:40:15 PM 40.0044 29.5627 150° Southeast  Level Estimated
Sat 12:41:15 PM 39.9177 29.6276 150° Southeast  Level Estimated
Sat 12:42:15 PM 39.8310 29.6923 150° Southeast  Level Estimated
Sat 12:43:15 PM 39.7443 29.7568 150° Southeast  Level Estimated
Sat 12:44:15 PM 39.6575 29.8213 150° Southeast  Level Estimated
Sat 12:45:15 PM 39.5707 29.8855 150° Southeast  Level Estimated
Sat 12:46:15 PM 39.4838 29.9496 150° Southeast  Level Estimated
Sat 12:47:15 PM 39.3970 30.0135 150° Southeast  Level Estimated
Sat 12:48:15 PM 39.3100 30.0772 150° Southeast  Level Estimated
Sat 12:49:15 PM 39.2231 30.1409 150° Southeast  Level Estimated
Sat 12:50:15 PM 39.1361 30.2043 151° Southeast  Level Estimated
Sat 12:51:15 PM 39.0491 30.2676 151° Southeast  Level Estimated
Sat 12:52:15 PM 38.9620 30.3307 151° Southeast  Level Estimated
Sat 12:53:15 PM 38.8749 30.3937 151° Southeast  Level Estimated
Sat 12:54:15 PM 38.7878 30.4565 151° Southeast  Level Estimated
Sat 12:55:15 PM 38.7006 30.5192 151° Southeast  Level Estimated
Sat 12:56:15 PM 38.6135 30.5817 151° Southeast  Level Estimated
Sat 12:57:15 PM 38.5262 30.6441 151° Southeast  Level Estimated
Sat 12:58:15 PM 38.4390 30.7063 151° Southeast  Level Estimated
Sat 12:59:15 PM 38.3517 30.7683 151° Southeast  Level Estimated
Sat 01:00:15 PM 38.2644 30.8302 151° Southeast  Level Estimated
Sat 01:01:15 PM 38.1770 30.8920 151° Southeast  Level Estimated
Sat 01:02:15 PM 38.0896 30.9536 151° Southeast  Level Estimated
Sat 01:03:15 PM 38.0022 31.0151 151° Southeast  Level Estimated
Sat 01:04:15 PM 37.9147 31.0764 151° Southeast  Level Estimated
Sat 01:05:15 PM 37.8273 31.1376 151° Southeast  Level Estimated
Sat 01:06:15 PM 37.7398 31.1986 151° Southeast  Level Estimated
Sat 01:07:15 PM 37.6522 31.2595 151° Southeast  Level Estimated
Sat 01:08:15 PM 37.5646 31.3202 151° Southeast  Level Estimated
Sat 01:09:15 PM 37.4770 31.3808 151° Southeast  Level Estimated
Sat 01:10:15 PM 37.3894 31.4413 151° Southeast  Level Estimated
Sat 01:11:15 PM 37.3017 31.5016 151° Southeast  Level Estimated
Sat 01:12:15 PM 37.2140 31.5618 151° Southeast  Level Estimated
Sat 01:13:15 PM 37.1263 31.6218 151° Southeast  Level Estimated
Sat 01:14:15 PM 37.0385 31.6817 151° Southeast  Level Estimated
Sat 01:15:15 PM 36.9507 31.7415 151° Southeast  Level Estimated
Sat 01:16:15 PM 36.8629 31.8011 152° Southeast  Level Estimated
Sat 01:17:15 PM 36.7751 31.8606 152° Southeast  Level Estimated
Sat 01:18:15 PM 36.6872 31.9200 152° Southeast  Level Estimated
Sat 01:19:15 PM 36.5993 31.9792 152° Southeast  Level Estimated
Sat 01:20:15 PM 36.5113 32.0383 152° Southeast  Level Estimated
Sat 01:21:15 PM 36.4234 32.0972 152° Southeast  Level Estimated
Sat 01:22:15 PM 36.3354 32.1560 152° Southeast  Level Estimated
Sat 01:23:15 PM 36.2473 32.2147 152° Southeast  Level Estimated
Sat 01:24:15 PM 36.1593 32.2733 152° Southeast  Level Estimated
Sat 01:25:15 PM 36.0712 32.3317 152° Southeast  Level Estimated
Sat 01:26:15 PM 35.9831 32.3899 152° Southeast  Level Estimated
Sat 01:27:15 PM 35.8950 32.4481 152° Southeast  Level Estimated
Sat 01:28:15 PM 35.8068 32.5061 152° Southeast  Level Estimated
Sat 01:29:15 PM 35.7186 32.5640 152° Southeast  Level Estimated
Sat 01:30:15 PM 35.6304 32.6218 152° Southeast  Level Estimated
Sat 01:31:15 PM 35.5421 32.6794 152° Southeast  Level Estimated
Sat 01:32:15 PM 35.4538 32.7369 152° Southeast  Level Estimated
Sat 01:33:15 PM 35.3655 32.7943 152° Southeast  Level Estimated
Sat 01:34:15 PM 35.2772 32.8516 152° Southeast  Level Estimated
Sat 01:35:15 PM 35.1888 32.9087 152° Southeast  Level Estimated
Sat 01:36:15 PM 35.1004 32.9658 152° Southeast  Level Estimated
Sat 01:37:15 PM 35.0120 33.0227 152° Southeast  Level Estimated
Sat 01:38:15 PM 34.9236 33.0794 152° Southeast  Level Estimated
Sat 01:39:15 PM 34.8351 33.1361 152° Southeast  Level Estimated
Sat 01:40:15 PM 34.7466 33.1926 152° Southeast  Level Estimated
Sat 01:41:15 PM 34.6581 33.2490 152° Southeast  Level Estimated
Sat 01:42:15 PM 34.5696 33.3053 152° Southeast  Level Estimated
Sat 01:43:15 PM 34.4810 33.3614 152° Southeast  Level Estimated
Sat 01:44:15 PM 34.3924 33.4175 152° Southeast  Level Estimated
Sat 01:45:15 PM 34.3038 33.4734 152° Southeast  Level Estimated
Sat 01:46:15 PM 34.2151 33.5292 153° Southeast  Level Estimated
Sat 01:47:15 PM 34.1265 33.5849 153° Southeast  Level Estimated
Sat 01:48:15 PM 34.0378 33.6405 153° Southeast  Level Estimated
Sat 01:49:15 PM 33.9491 33.6959 153° Southeast  Level Estimated
Sat 01:50:15 PM 33.8603 33.7513 153° Southeast  Level Estimated
Sat 01:51:15 PM 33.7715 33.8065 153° Southeast  Level Estimated
Sat 01:52:15 PM 33.6828 33.8616 153° Southeast  Level Estimated
Sat 01:53:15 PM 33.5939 33.9166 153° Southeast  Level Estimated
Sat 01:54:15 PM 33.5051 33.9715 153° Southeast  Level Estimated
Sat 01:55:15 PM 33.4162 34.0263 153° Southeast  Level Estimated
Sat 01:56:15 PM 33.3273 34.0809 153° Southeast  Level Estimated
Sat 01:57:15 PM 33.2384 34.1355 153° Southeast  Level Estimated
Sat 01:58:15 PM 33.1495 34.1899 153° Southeast  Level Estimated
Sat 01:59:15 PM 33.0605 34.2443 153° Southeast  Level Estimated
Sat 02:00:15 PM 32.9715 34.2985 153° Southeast  Level Estimated
Sat 02:01:15 PM 32.8825 34.3526 153° Southeast  Level Estimated
Sat 02:02:15 PM 32.7935 34.4066 153° Southeast  Level Estimated
Sat 02:03:15 PM 32.7044 34.4605 153° Southeast  Level Estimated
Sat 02:04:15 PM 32.6153 34.5143 153° Southeast  Level Estimated
Sat 02:05:15 PM 32.5262 34.5679 153° Southeast  Level Estimated
Sat 02:06:15 PM 32.4371 34.6215 153° Southeast  Level Estimated
Sat 02:07:15 PM 32.3480 34.6750 153° Southeast  Level Estimated
Sat 02:08:15 PM 32.2588 34.7283 153° Southeast  Level Estimated
Sat 02:09:15 PM 32.1696 34.7816 153° Southeast  Level Estimated
Sat 02:10:15 PM 32.0804 34.8347 153° Southeast  Level Estimated
Sat 02:11:15 PM 31.9912 34.8878 333° Northwest  Level Estimated
Sat 02:12:15 PM 32.0804 34.8347 153° Southeast  Level Estimated
Sat 02:13:15 PM 31.9912 34.8878 333° Northwest  Level Estimated
Sat 02:14:15 PM 32.0804 34.8347 153° Southeast  Level Estimated
Sat 02:15:15 PM 31.9912 34.8878 333° Northwest  Level Estimated
Sat 02:16:15 PM 32.0804 34.8347 153° Southeast  Level Estimated
Sat 02:17:15 PM 31.9912 34.8878 333° Northwest  Level Estimated
Sat 02:18:15 PM 32.0804 34.8347 153° Southeast  Level Estimated
Sat 02:19:15 PM 31.9912 34.8878 333° Northwest  Level Estimated
Sat 02:20:15 PM 32.0804 34.8347 153° Southeast  Level Estimated
Sat 02:21:15 PM 31.9912 34.8878 333° Northwest  Level Estimated
Sat 02:22:15 PM 32.0804 34.8347 153° Southeast  Level Estimated
Sat 02:23:15 PM 31.9912 34.8878 333° Northwest  Level Estimated
Sat 02:24:15 PM 32.0804 34.8347 153° Southeast  Level Estimated
Sat 02:25:15 PM 31.9912 34.8878 153° Southeast  Level Estimated

Login

Don't have an account? Register now (free) for customized features, flight alerts, and more!